createdAt,value
2018-08-25T00:00:06.087Z,55.24
2018-08-25T00:02:35.111Z,55.14
2018-08-25T00:05:04.316Z,56.19
2018-08-25T00:07:33.562Z,56.26
2018-08-25T00:10:02.801Z,56.27
2018-08-25T00:12:31.727Z,56.88
2018-08-25T00:15:01.138Z,57.34
2018-08-25T00:17:30.107Z,57.07
2018-08-25T00:19:59.218Z,57.66
2018-08-25T00:22:28.546Z,57.55
2018-08-25T00:24:57.596Z,57.52
2018-08-25T00:27:26.611Z,57.21
2018-08-25T00:29:55.922Z,56.37
2018-08-25T00:32:25.023Z,55.85
2018-08-25T00:34:54.183Z,55.88
2018-08-25T00:37:23.377Z,55.90
2018-08-25T00:39:52.456Z,56.29
2018-08-25T00:42:21.386Z,56.90
2018-08-25T00:44:50.988Z,57.31
2018-08-25T00:47:20.194Z,57.40
2018-08-25T00:49:49.284Z,58.11
2018-08-25T00:52:18.815Z,58.29
2018-08-25T00:54:48.073Z,58.89
2018-08-25T00:57:17.264Z,58.97
2018-08-25T00:59:46.383Z,59.18
2018-08-25T01:02:15.402Z,59.29
2018-08-25T01:04:44.507Z,59.84
2018-08-25T01:07:14.074Z,59.17
2018-08-25T01:09:43.098Z,59.70
2018-08-25T01:12:12.215Z,60.18
2018-08-25T01:14:41.691Z,59.68
2018-08-25T01:17:10.905Z,60.13
2018-08-25T01:19:39.981Z,59.92
2018-08-25T01:22:09.313Z,60.06
2018-08-25T01:24:38.375Z,59.82
2018-08-25T01:27:07.592Z,60.57
2018-08-25T01:29:36.798Z,60.87
2018-08-25T01:32:05.890Z,61.60
2018-08-25T01:34:35.051Z,62.44
2018-08-25T01:37:04.590Z,62.86
2018-08-25T01:39:33.696Z,63.29
2018-08-25T01:42:02.637Z,64.17
2018-08-25T01:44:31.679Z,63.78
2018-08-25T01:47:01.015Z,63.78
2018-08-25T01:49:30.065Z,65.05
2018-08-25T01:51:59.591Z,64.74
2018-08-25T01:54:28.571Z,64.96
2018-08-25T01:56:57.876Z,65.44
2018-08-25T01:59:27.096Z,65.01
2018-08-25T02:01:56.059Z,65.63
2018-08-25T02:04:25.053Z,66.49
2018-08-25T02:06:54.102Z,65.97
2018-08-25T02:09:23.042Z,66.26
2018-08-25T02:11:52.050Z,66.13
2018-08-25T02:14:21.562Z,66.70
2018-08-25T02:16:50.536Z,66.52
2018-08-25T02:19:19.436Z,66.81
2018-08-25T02:21:48.822Z,66.77
2018-08-25T02:24:17.848Z,67.19
2018-08-25T02:26:47.118Z,67.28
2018-08-25T02:29:16.634Z,68.20
2018-08-25T02:31:45.716Z,68.64
2018-08-25T02:34:14.905Z,69.26
2018-08-25T02:36:44.381Z,69.22
2018-08-25T02:39:14.453Z,69.49
2018-08-25T02:41:44.155Z,69.47
2018-08-25T02:44:13.211Z,69.29
2018-08-25T02:46:42.369Z,69.80
2018-08-25T02:49:11.364Z,69.70
2018-08-25T02:51:40.387Z,69.58
2018-08-25T02:54:09.668Z,69.87
2018-08-25T02:56:38.657Z,70.11
2018-08-25T02:59:07.622Z,70.30
2018-08-25T03:01:36.772Z,70.41
2018-08-25T03:04:05.678Z,70.56
2018-08-25T03:06:34.757Z,70.72
2018-08-25T03:09:04.483Z,70.50
2018-08-25T03:11:33.427Z,70.39
2018-08-25T03:14:02.559Z,70.25
2018-08-25T03:16:31.515Z,70.63
2018-08-25T03:19:00.506Z,70.66
2018-08-25T03:21:29.882Z,69.75
2018-08-25T03:23:59.099Z,69.69
2018-08-25T03:26:28.124Z,69.74
2018-08-25T03:28:57.442Z,69.83
2018-08-25T03:31:26.525Z,69.60
2018-08-25T03:33:55.726Z,69.69
2018-08-25T03:36:25.098Z,69.52
2018-08-25T03:38:54.302Z,69.96
2018-08-25T03:41:23.271Z,69.97
2018-08-25T03:43:53.196Z,69.79
2018-08-25T03:46:22.330Z,69.35
2018-08-25T03:48:51.462Z,69.10
2018-08-25T03:51:20.564Z,69.25
2018-08-25T03:53:49.999Z,69.30
2018-08-25T03:56:19.440Z,69.60
2018-08-25T03:58:48.757Z,68.42
2018-08-25T04:01:18.036Z,67.61
2018-08-25T04:03:47.048Z,66.05
2018-08-25T04:06:16.619Z,65.37
2018-08-25T04:08:45.527Z,64.79
2018-08-25T04:11:14.526Z,63.34
2018-08-25T04:13:43.628Z,61.93
2018-08-25T04:16:12.501Z,60.63
2018-08-25T04:18:41.519Z,58.31
2018-08-25T04:21:10.822Z,57.10
2018-08-25T04:23:39.805Z,55.49
2018-08-25T04:26:08.871Z,54.24
2018-08-25T04:28:38.222Z,53.40
2018-08-25T04:31:07.194Z,52.06
2018-08-25T04:33:36.145Z,50.93
2018-08-25T04:36:05.119Z,49.72
2018-08-25T04:38:34.377Z,48.03
2018-08-25T04:41:03.350Z,47.81
2018-08-25T04:43:32.384Z,47.75
2018-08-25T04:46:01.486Z,46.77
2018-08-25T04:48:30.611Z,47.12
2018-08-25T04:50:59.669Z,46.08
2018-08-25T04:53:28.751Z,43.31
2018-08-25T04:55:58.078Z,42.49
2018-08-25T04:58:27.272Z,41.02
2018-08-25T05:00:56.267Z,41.50
2018-08-25T05:03:25.390Z,40.78
2018-08-25T05:05:54.451Z,41.19
2018-08-25T05:08:23.915Z,40.47
2018-08-25T05:10:53.099Z,39.83
2018-08-25T05:13:22.146Z,39.76
2018-08-25T05:15:51.332Z,38.73
2018-08-25T05:18:20.789Z,38.49
2018-08-25T05:20:49.940Z,38.43
2018-08-25T05:23:18.835Z,36.88
2018-08-25T05:25:48.148Z,37.72
2018-08-25T05:28:17.154Z,38.10
2018-08-25T05:30:46.131Z,37.25
2018-08-25T05:33:15.577Z,36.13
2018-08-25T05:35:44.746Z,35.45
2018-08-25T05:38:13.760Z,34.56
2018-08-25T05:40:46.417Z,36.56
2018-08-25T05:43:15.520Z,35.78
2018-08-25T05:45:45.283Z,34.16
2018-08-25T05:48:14.955Z,33.67
2018-08-25T05:50:44.252Z,33.47
2018-08-25T05:53:13.510Z,32.97
2018-08-25T05:55:44.171Z,33.89
2018-08-25T05:58:14.388Z,33.48
2018-08-25T06:00:43.586Z,35.37
2018-08-25T06:03:13.088Z,37.06
2018-08-25T06:05:42.183Z,39.89
2018-08-25T06:08:11.194Z,40.28
2018-08-25T06:10:40.539Z,41.55
2018-08-25T06:13:09.700Z,42.64
2018-08-25T06:15:38.827Z,42.66
2018-08-25T06:18:08.510Z,42.90
2018-08-25T06:20:37.675Z,43.27
2018-08-25T06:23:06.844Z,42.40
2018-08-25T06:25:36.223Z,42.67
2018-08-25T06:28:05.303Z,40.57
2018-08-25T06:30:34.487Z,39.19
2018-08-25T06:33:03.769Z,37.95
2018-08-25T06:35:32.768Z,34.45
2018-08-25T06:38:01.726Z,33.37
2018-08-25T06:40:30.863Z,31.01
2018-08-25T06:43:00.074Z,30.95
2018-08-25T06:45:29.287Z,30.58
2018-08-25T06:47:58.807Z,31.49
2018-08-25T06:50:27.994Z,30.17
2018-08-25T06:52:57.095Z,30.93
2018-08-25T06:55:26.307Z,31.95
2018-08-25T06:57:55.277Z,30.17
2018-08-25T07:02:52.470Z,29.16
2018-08-25T07:05:21.558Z,28.58
2018-08-25T07:07:51.084Z,29.72
2018-08-25T07:10:20.481Z,29.30
2018-08-25T07:12:49.620Z,30.74
2018-08-25T07:15:18.744Z,29.78
2018-08-25T07:17:47.835Z,30.50
2018-08-25T07:20:16.524Z,31.84
2018-08-25T07:22:45.518Z,33.05
2018-08-25T07:25:15.151Z,32.35
2018-08-25T07:27:44.435Z,34.25
2018-08-25T07:30:13.467Z,34.85
2018-08-25T07:32:42.524Z,33.26
2018-08-25T07:35:11.636Z,35.10
2018-08-25T07:37:40.629Z,33.80
2018-08-25T07:40:10.075Z,33.06
2018-08-25T07:42:39.124Z,31.57
2018-08-25T07:45:08.291Z,31.86
2018-08-25T07:47:37.252Z,32.52
2018-08-25T07:50:06.511Z,34.19
2018-08-25T07:52:35.519Z,34.75
2018-08-25T07:55:04.947Z,36.57
2018-08-25T07:57:34.014Z,34.40
2018-08-25T08:00:02.855Z,33.65
2018-08-25T08:02:31.956Z,32.93
2018-08-25T08:05:01.027Z,34.31
2018-08-25T08:07:30.193Z,36.23
2018-08-25T08:09:59.409Z,36.51
2018-08-25T08:12:28.321Z,34.83
2018-08-25T08:14:57.524Z,33.64
2018-08-25T08:17:27.008Z,34.96
2018-08-25T08:19:56.119Z,33.48
2018-08-25T08:22:25.284Z,32.20
2018-08-25T08:24:54.400Z,31.95
2018-08-25T08:27:23.325Z,31.62
2018-08-25T08:29:52.302Z,31.63
2018-08-25T08:32:21.803Z,30.42
2018-08-25T08:34:50.802Z,30.65
2018-08-25T08:37:19.755Z,30.16
2018-08-25T08:39:49.131Z,30.07
2018-08-25T08:42:18.315Z,30.68
2018-08-25T08:44:47.263Z,30.38
2018-08-25T08:47:16.745Z,30.58
2018-08-25T08:49:46.908Z,29.38
2018-08-25T08:52:14.640Z,31.22
2018-08-25T08:54:43.564Z,32.39
2018-08-25T08:57:12.623Z,30.69
2018-08-25T08:59:41.556Z,32.23
2018-08-25T09:02:11.038Z,31.32
2018-08-25T09:04:40.143Z,31.72
2018-08-25T09:07:09.414Z,32.04
2018-08-25T09:09:38.454Z,33.02
2018-08-25T09:12:07.731Z,34.08
2018-08-25T09:14:36.817Z,32.05
2018-08-25T09:17:06.251Z,32.35
2018-08-25T09:19:35.383Z,32.78
2018-08-25T09:22:04.182Z,32.86
2018-08-25T09:24:33.396Z,32.09
2018-08-25T09:27:02.479Z,33.19
2018-08-25T09:29:31.230Z,35.70
2018-08-25T09:32:00.436Z,33.58
2018-08-25T09:34:29.390Z,33.37
2018-08-25T09:36:58.290Z,32.58
2018-08-25T09:39:27.599Z,32.42
2018-08-25T09:41:56.555Z,32.95
2018-08-25T09:44:25.317Z,33.32
2018-08-25T09:46:54.275Z,32.72
2018-08-25T09:49:23.223Z,33.72
2018-08-25T09:51:52.230Z,33.35
2018-08-25T09:54:21.671Z,35.24
2018-08-25T09:56:50.516Z,34.68
2018-08-25T09:59:19.615Z,33.87
2018-08-25T10:01:53.921Z,33.55
2018-08-25T10:04:22.830Z,33.72
2018-08-25T10:06:51.898Z,33.00
2018-08-25T10:09:21.000Z,32.02
2018-08-25T10:11:49.791Z,31.57
2018-08-25T10:14:18.681Z,31.82
2018-08-25T10:16:47.772Z,31.03
2018-08-25T10:19:16.686Z,31.17
2018-08-25T10:21:45.778Z,31.79
2018-08-25T10:24:14.841Z,30.95
2018-08-25T10:26:43.789Z,30.52
2018-08-25T10:29:12.963Z,31.17
2018-08-25T10:31:42.320Z,31.50
2018-08-25T10:34:11.263Z,31.51
2018-08-25T10:36:40.461Z,31.35
2018-08-25T10:39:11.782Z,31.11
2018-08-25T10:41:40.903Z,31.77
2018-08-25T10:44:09.902Z,31.23
2018-08-25T10:46:40.230Z,32.68
2018-08-25T10:49:09.229Z,34.86
2018-08-25T10:51:38.566Z,34.91
2018-08-25T10:54:08.258Z,34.39
2018-08-25T10:56:37.139Z,33.68
2018-08-25T10:59:06.191Z,33.45
2018-08-25T11:01:35.535Z,31.31
2018-08-25T11:04:04.537Z,33.07
2018-08-25T11:06:33.495Z,32.55
2018-08-25T11:09:02.583Z,33.11
2018-08-25T11:11:31.486Z,33.17
2018-08-25T11:14:00.282Z,32.66
2018-08-25T11:16:29.909Z,33.10
2018-08-25T11:18:58.771Z,31.86
2018-08-25T11:21:27.893Z,33.51
2018-08-25T11:23:57.367Z,33.07
2018-08-25T11:26:26.286Z,31.88
2018-08-25T11:28:55.102Z,32.36
2018-08-25T11:31:24.191Z,31.41
2018-08-25T11:33:53.369Z,31.77
2018-08-25T11:36:22.560Z,30.99
2018-08-25T11:38:51.856Z,31.14
2018-08-25T11:41:20.850Z,29.21
2018-08-25T11:43:49.966Z,31.50
2018-08-25T11:46:19.318Z,31.95
2018-08-25T11:48:48.119Z,31.27
2018-08-25T11:51:16.942Z,29.86
2018-08-25T11:53:46.266Z,29.46
2018-08-25T11:56:15.341Z,30.14
2018-08-25T11:58:44.523Z,29.84
2018-08-25T12:01:13.436Z,30.08
2018-08-25T12:03:42.512Z,30.10
2018-08-25T12:06:11.606Z,30.09
2018-08-25T12:08:40.876Z,31.48
2018-08-25T12:11:09.919Z,34.57
2018-08-25T12:13:39.001Z,35.85
2018-08-25T12:16:08.177Z,35.66
2018-08-25T12:18:37.021Z,37.70
2018-08-25T12:21:06.085Z,37.72
2018-08-25T12:23:35.408Z,37.68
2018-08-25T12:26:04.683Z,38.93
2018-08-25T12:28:33.613Z,39.35
2018-08-25T12:31:02.835Z,38.61
2018-08-25T12:33:31.825Z,39.00
2018-08-25T12:36:00.654Z,37.84
2018-08-25T12:38:29.919Z,36.80
2018-08-25T12:40:58.854Z,36.63
2018-08-25T12:43:28.014Z,35.24
2018-08-25T12:45:56.989Z,34.49
2018-08-25T12:48:25.934Z,29.87
2018-08-25T12:50:54.834Z,29.23
2018-08-25T12:53:24.538Z,29.62
2018-08-25T12:55:53.524Z,29.93
2018-08-25T12:58:22.627Z,29.83
2018-08-25T13:00:52.040Z,30.59
2018-08-25T13:03:21.111Z,30.59
2018-08-25T13:05:50.028Z,30.16
2018-08-25T13:08:19.396Z,30.42
2018-08-25T13:10:48.600Z,30.48
2018-08-25T13:13:17.697Z,30.82
2018-08-25T13:15:47.029Z,31.32
2018-08-25T13:18:16.031Z,31.41
2018-08-25T13:20:45.196Z,30.98
2018-08-25T13:23:14.543Z,30.89
2018-08-25T13:25:43.629Z,30.52
2018-08-25T13:28:12.635Z,29.96
2018-08-25T13:30:41.978Z,29.65
2018-08-25T13:33:10.889Z,29.20
2018-08-25T13:35:39.890Z,29.93
2018-08-25T13:38:09.524Z,29.85
2018-08-25T13:40:38.492Z,29.73
2018-08-25T13:43:07.706Z,29.95
2018-08-25T13:45:36.695Z,30.43
2018-08-25T13:48:06.403Z,31.29
2018-08-25T13:50:35.463Z,32.30
2018-08-25T13:53:04.799Z,32.71
2018-08-25T13:55:33.731Z,33.98
2018-08-25T13:58:02.672Z,32.98
2018-08-25T14:00:31.824Z,33.37
2018-08-25T14:03:00.779Z,32.36
2018-08-25T14:05:29.756Z,35.00
2018-08-25T14:07:59.393Z,34.49
2018-08-25T14:10:28.559Z,33.57
2018-08-25T14:12:57.518Z,33.67
2018-08-25T14:15:26.757Z,33.22
2018-08-25T14:17:55.567Z,33.74
2018-08-25T14:20:24.443Z,33.17
2018-08-25T14:22:53.608Z,34.61
2018-08-25T14:25:22.527Z,34.46
2018-08-25T14:27:51.537Z,34.58
2018-08-25T14:30:21.101Z,34.01
2018-08-25T14:32:50.195Z,33.52
2018-08-25T14:35:19.089Z,32.65
2018-08-25T14:37:48.563Z,31.75
2018-08-25T14:40:17.682Z,31.67
2018-08-25T14:42:46.719Z,31.53
2018-08-25T14:45:16.176Z,31.66
2018-08-25T14:47:45.103Z,32.14
2018-08-25T14:50:13.878Z,31.86
2018-08-25T14:52:43.044Z,31.56
2018-08-25T14:55:12.287Z,31.44
2018-08-25T14:57:41.059Z,31.74
2018-08-25T15:00:10.031Z,31.59
2018-08-25T15:02:39.068Z,31.08
2018-08-25T15:05:08.072Z,30.82
2018-08-25T15:07:36.945Z,29.98
2018-08-25T15:10:06.469Z,33.29
2018-08-25T15:12:35.310Z,33.34
2018-08-25T15:15:04.596Z,32.41
2018-08-25T15:17:33.543Z,31.75
2018-08-25T15:20:02.650Z,31.31
2018-08-25T15:22:31.626Z,30.81
2018-08-25T15:25:00.758Z,29.54
2018-08-25T15:27:29.731Z,29.39
2018-08-25T15:29:58.907Z,30.18
2018-08-25T15:32:27.648Z,31.27
2018-08-25T15:34:56.613Z,33.14
2018-08-25T15:37:25.541Z,33.30
2018-08-25T15:39:54.591Z,34.07
2018-08-25T15:42:23.683Z,34.08
2018-08-25T15:44:53.718Z,32.20
2018-08-25T15:47:22.585Z,32.57
2018-08-25T15:49:51.664Z,35.94
2018-08-25T15:52:20.708Z,34.79
2018-08-25T15:54:49.580Z,38.24
2018-08-25T15:57:18.447Z,39.54
2018-08-25T15:59:47.816Z,40.12
2018-08-25T16:02:17.752Z,40.84
2018-08-25T16:04:46.840Z,41.30
2018-08-25T16:07:17.093Z,41.66
2018-08-25T16:09:47.045Z,41.99
2018-08-25T16:12:16.513Z,42.59
2018-08-25T16:14:47.354Z,42.56
2018-08-25T16:17:16.935Z,42.80
2018-08-25T16:19:46.094Z,42.37
2018-08-25T16:22:15.628Z,43.27
2018-08-25T16:24:45.008Z,42.73
2018-08-25T16:27:14.926Z,42.74
2018-08-25T16:29:44.140Z,42.82
2018-08-25T16:32:14.596Z,42.64
2018-08-25T16:34:44.033Z,43.21
2018-08-25T16:37:13.956Z,43.49
2018-08-25T16:39:43.999Z,43.31
2018-08-25T16:42:12.939Z,44.13
2018-08-25T16:44:42.279Z,43.82
2018-08-25T16:47:11.110Z,44.02
2018-08-25T16:49:40.311Z,44.51
2018-08-25T16:52:09.423Z,44.35
2018-08-25T16:54:38.199Z,44.77
2018-08-25T16:57:09.166Z,44.42
2018-08-25T16:59:37.876Z,44.96
2018-08-25T17:02:07.160Z,44.43
2018-08-25T17:04:36.074Z,43.98
2018-08-25T17:07:05.705Z,43.62
2018-08-25T17:09:34.496Z,43.77
2018-08-25T17:12:03.531Z,44.14
2018-08-25T17:14:33.037Z,44.10
2018-08-25T17:17:01.818Z,44.24
2018-08-25T17:19:30.826Z,44.81
2018-08-25T17:22:00.383Z,44.90
2018-08-25T17:24:29.347Z,45.15
2018-08-25T17:26:59.789Z,45.60
2018-08-25T17:29:30.244Z,46.11
2018-08-25T17:31:59.370Z,45.82
2018-08-25T17:34:28.358Z,46.08
2018-08-25T17:36:59.071Z,47.04
2018-08-25T17:39:29.080Z,47.23
2018-08-25T17:41:58.515Z,47.49
2018-08-25T17:44:27.762Z,47.19
2018-08-25T17:46:56.869Z,47.35
2018-08-25T17:49:25.787Z,48.70
2018-08-25T17:51:54.955Z,48.47
2018-08-25T17:54:23.839Z,49.35
2018-08-25T17:56:53.198Z,49.41
2018-08-25T17:59:22.359Z,49.60
2018-08-25T18:01:51.395Z,50.24
2018-08-25T18:04:20.167Z,50.52
2018-08-25T18:06:49.458Z,50.17
2018-08-25T18:09:18.278Z,51.06
2018-08-25T18:11:47.254Z,51.32
2018-08-25T18:14:16.193Z,51.08
2018-08-25T18:16:45.107Z,52.03
2018-08-25T18:19:14.035Z,52.00
2018-08-25T18:21:43.166Z,51.61
2018-08-25T18:24:12.330Z,51.56
2018-08-25T18:26:41.127Z,51.82
2018-08-25T18:29:10.195Z,51.86
2018-08-25T18:31:39.147Z,52.60
2018-08-25T18:34:08.000Z,52.83
2018-08-25T18:36:36.941Z,53.20
2018-08-25T18:39:08.947Z,53.18
2018-08-25T18:41:38.301Z,52.60
2018-08-25T18:44:07.738Z,53.48
2018-08-25T18:46:36.751Z,53.04
2018-08-25T18:49:05.742Z,53.03
2018-08-25T18:51:34.844Z,52.72
2018-08-25T18:54:03.733Z,52.82
2018-08-25T18:56:32.958Z,53.45
2018-08-25T18:59:01.994Z,53.35
2018-08-25T19:01:30.910Z,53.85
2018-08-25T19:04:00.037Z,54.17
2018-08-25T19:06:29.214Z,53.94
2018-08-25T19:08:58.111Z,54.34
2018-08-25T19:11:27.207Z,54.30
2018-08-25T19:13:55.969Z,54.16
2018-08-25T19:16:24.983Z,54.72
2018-08-25T19:18:54.128Z,54.10
2018-08-25T19:21:23.153Z,54.65
2018-08-25T19:23:51.908Z,55.03
2018-08-25T19:26:21.379Z,55.30
2018-08-25T19:28:50.363Z,55.38
2018-08-25T19:31:19.242Z,55.52
2018-08-25T19:33:48.899Z,54.92
2018-08-25T19:36:17.663Z,54.93
2018-08-25T19:38:46.736Z,55.37
2018-08-25T19:41:16.279Z,57.37
2018-08-25T19:43:45.140Z,57.87
2018-08-25T19:46:14.161Z,58.76
2018-08-25T19:48:43.583Z,59.02
2018-08-25T19:51:12.503Z,59.74
2018-08-25T19:53:41.322Z,60.83
2018-08-25T19:56:10.749Z,62.01
2018-08-25T19:58:39.607Z,62.51
2018-08-25T20:01:08.479Z,62.05
2018-08-25T20:03:37.630Z,62.29
2018-08-25T20:06:07.305Z,63.38
2018-08-25T20:08:36.399Z,62.90
2018-08-25T20:11:05.333Z,61.83
2018-08-25T20:13:34.285Z,62.06
2018-08-25T20:16:03.278Z,62.56
2018-08-25T20:18:32.086Z,62.32
2018-08-25T20:21:01.269Z,63.15
2018-08-25T20:23:30.042Z,62.68
2018-08-25T20:25:59.508Z,62.46
2018-08-25T20:28:28.516Z,62.23
2018-08-25T20:30:57.965Z,62.75
2018-08-25T20:33:27.712Z,63.13
2018-08-25T20:35:56.561Z,62.86
2018-08-25T20:38:25.450Z,63.78
2018-08-25T20:40:55.328Z,63.94
2018-08-25T20:43:24.749Z,64.51
2018-08-25T20:45:53.884Z,63.93
2018-08-25T20:48:23.306Z,64.33
2018-08-25T20:50:52.463Z,63.87
2018-08-25T20:53:21.556Z,63.84
2018-08-25T20:55:50.483Z,64.03
2018-08-25T20:58:19.523Z,64.57
2018-08-25T21:00:48.520Z,64.77
2018-08-25T21:03:17.630Z,64.33
2018-08-25T21:05:46.512Z,64.77
2018-08-25T21:08:15.521Z,64.68
2018-08-25T21:10:44.841Z,64.63
2018-08-25T21:13:13.919Z,65.30
2018-08-25T21:15:42.931Z,64.76
2018-08-25T21:18:11.811Z,65.32
2018-08-25T21:20:40.794Z,65.20
2018-08-25T21:23:09.702Z,65.46
2018-08-25T21:25:38.675Z,64.77
2018-08-25T21:28:10.335Z,64.92
2018-08-25T21:30:40.315Z,65.67
2018-08-25T21:33:09.247Z,66.17
2018-08-25T21:35:38.666Z,66.02
2018-08-25T21:38:08.611Z,65.62
2018-08-25T21:40:37.656Z,65.65
2018-08-25T21:43:06.547Z,65.89
2018-08-25T21:45:35.995Z,66.18
2018-08-25T21:48:05.058Z,65.39
2018-08-25T21:50:34.055Z,65.88
2018-08-25T21:53:03.299Z,66.13
2018-08-25T21:55:32.423Z,66.53
2018-08-25T21:58:02.080Z,65.88
2018-08-25T22:00:31.563Z,65.89
2018-08-25T22:03:01.066Z,65.78
2018-08-25T22:05:30.266Z,66.61
2018-08-25T22:07:59.509Z,66.42
2018-08-25T22:10:33.518Z,66.85
2018-08-25T22:13:03.531Z,66.70
2018-08-25T22:15:32.695Z,66.97
2018-08-25T22:18:01.654Z,67.21
2018-08-25T22:20:30.822Z,67.20
2018-08-25T22:22:59.760Z,67.55
2018-08-25T22:25:28.775Z,67.91
2018-08-25T22:27:57.967Z,67.64
2018-08-25T22:30:29.307Z,67.79
2018-08-25T22:33:35.831Z,68.28
2018-08-25T22:36:06.870Z,68.67
2018-08-25T22:38:35.756Z,68.82
2018-08-25T22:41:04.477Z,68.70
2018-08-25T22:43:34.686Z,69.10
2018-08-25T22:46:03.810Z,69.54
2018-08-25T22:48:32.626Z,69.52
2018-08-25T22:51:01.282Z,70.51
2018-08-25T22:53:31.178Z,69.85
2018-08-25T22:56:00.833Z,70.03
2018-08-25T22:58:29.714Z,70.01
2018-08-25T23:00:58.454Z,71.27
2018-08-25T23:03:27.199Z,71.53
2018-08-25T23:05:56.080Z,71.86
2018-08-25T23:08:25.454Z,72.47
2018-08-25T23:10:54.428Z,73.56
2018-08-25T23:13:23.152Z,73.67
2018-08-25T23:15:52.951Z,75.31
2018-08-25T23:18:22.013Z,76.08
2018-08-25T23:20:51.151Z,75.82
2018-08-25T23:23:20.336Z,76.28
2018-08-25T23:25:49.653Z,76.37
2018-08-25T23:28:18.393Z,76.54
2018-08-25T23:30:47.670Z,76.48
2018-08-25T23:33:17.317Z,76.41
2018-08-25T23:35:46.697Z,76.81
2018-08-25T23:38:15.841Z,76.99
2018-08-25T23:40:44.566Z,76.72
2018-08-25T23:43:13.885Z,76.97
2018-08-25T23:45:43.159Z,76.91
2018-08-25T23:48:12.622Z,76.66
2018-08-25T23:50:41.783Z,76.42
2018-08-25T23:53:11.221Z,76.71
2018-08-25T23:55:39.951Z,77.21
2018-08-25T23:58:08.674Z,77.26
